sensor_id;sensor_type;location;lat;lon;timestamp;P1;durP1;ratioP1;P2;durP2;ratioP2
809;SDS011;387;48.772;9.186;2022-10-16T00:01:18;4.13;;;2.27;;
809;SDS011;387;48.772;9.186;2022-10-16T00:03:46;4.30;;;2.67;;
809;SDS011;387;48.772;9.186;2022-10-16T00:06:13;4.37;;;2.30;;
809;SDS011;387;48.772;9.186;2022-10-16T00:08:40;3.07;;;2.10;;
809;SDS011;387;48.772;9.186;2022-10-16T00:11:09;4.33;;;2.90;;
809;SDS011;387;48.772;9.186;2022-10-16T00:13:37;6.47;;;2.63;;
809;SDS011;387;48.772;9.186;2022-10-16T00:16:04;3.80;;;2.67;;
809;SDS011;387;48.772;9.186;2022-10-16T00:18:31;5.60;;;2.57;;
809;SDS011;387;48.772;9.186;2022-10-16T00:21:01;4.80;;;2.40;;
809;SDS011;387;48.772;9.186;2022-10-16T00:23:28;4.00;;;2.20;;
809;SDS011;387;48.772;9.186;2022-10-16T00:25:55;3.47;;;2.40;;
809;SDS011;387;48.772;9.186;2022-10-16T00:28:24;4.00;;;2.70;;
809;SDS011;387;48.772;9.186;2022-10-16T00:30:50;4.17;;;2.70;;
809;SDS011;387;48.772;9.186;2022-10-16T00:33:16;4.67;;;2.87;;
809;SDS011;387;48.772;9.186;2022-10-16T00:35:41;5.50;;;2.50;;
809;SDS011;387;48.772;9.186;2022-10-16T00:38:07;4.07;;;2.70;;
809;SDS011;387;48.772;9.186;2022-10-16T00:40:33;6.60;;;2.83;;
809;SDS011;387;48.772;9.186;2022-10-16T00:42:58;4.03;;;2.50;;
809;SDS011;387;48.772;9.186;2022-10-16T00:45:24;4.40;;;2.20;;
809;SDS011;387;48.772;9.186;2022-10-16T00:47:49;5.13;;;3.20;;
809;SDS011;387;48.772;9.186;2022-10-16T00:50:27;3.20;;;2.30;;
809;SDS011;387;48.772;9.186;2022-10-16T00:52:55;6.90;;;3.17;;
809;SDS011;387;48.772;9.186;2022-10-16T00:55:22;4.73;;;2.70;;
809;SDS011;387;48.772;9.186;2022-10-16T00:57:48;5.03;;;2.53;;
809;SDS011;387;48.772;9.186;2022-10-16T01:00:18;5.17;;;2.60;;
809;SDS011;387;48.772;9.186;2022-10-16T01:02:51;4.27;;;2.50;;
809;SDS011;387;48.772;9.186;2022-10-16T01:05:22;3.80;;;2.83;;
809;SDS011;387;48.772;9.186;2022-10-16T01:11:05;5.97;;;2.77;;
809;SDS011;387;48.772;9.186;2022-10-16T01:13:38;4.33;;;2.30;;
809;SDS011;387;48.772;9.186;2022-10-16T01:16:12;3.83;;;2.37;;
809;SDS011;387;48.772;9.186;2022-10-16T01:18:56;4.93;;;2.57;;
809;SDS011;387;48.772;9.186;2022-10-16T01:21:35;3.97;;;2.67;;
809;SDS011;387;48.772;9.186;2022-10-16T01:24:17;2.67;;;2.00;;
809;SDS011;387;48.772;9.186;2022-10-16T01:27:22;3.27;;;2.27;;
809;SDS011;387;48.772;9.186;2022-10-16T01:29:53;3.00;;;2.00;;
809;SDS011;387;48.772;9.186;2022-10-16T01:35:11;4.87;;;2.23;;
809;SDS011;387;48.772;9.186;2022-10-16T01:37:46;5.10;;;2.60;;
809;SDS011;387;48.772;9.186;2022-10-16T01:40:16;3.90;;;2.30;;
809;SDS011;387;48.772;9.186;2022-10-16T01:42:50;5.40;;;2.53;;
809;SDS011;387;48.772;9.186;2022-10-16T01:45:20;3.73;;;2.27;;
809;SDS011;387;48.772;9.186;2022-10-16T01:47:47;3.63;;;2.30;;
809;SDS011;387;48.772;9.186;2022-10-16T01:50:14;3.70;;;2.50;;
809;SDS011;387;48.772;9.186;2022-10-16T01:52:43;3.50;;;2.37;;
809;SDS011;387;48.772;9.186;2022-10-16T01:55:14;5.57;;;2.27;;
809;SDS011;387;48.772;9.186;2022-10-16T01:57:43;4.37;;;2.30;;
809;SDS011;387;48.772;9.186;2022-10-16T02:00:12;3.60;;;2.50;;
809;SDS011;387;48.772;9.186;2022-10-16T02:02:40;3.43;;;2.33;;
809;SDS011;387;48.772;9.186;2022-10-16T02:05:10;3.83;;;2.53;;
809;SDS011;387;48.772;9.186;2022-10-16T02:07:45;4.23;;;2.30;;
809;SDS011;387;48.772;9.186;2022-10-16T02:10:10;2.37;;;2.17;;
809;SDS011;387;48.772;9.186;2022-10-16T02:12:37;4.30;;;2.90;;
809;SDS011;387;48.772;9.186;2022-10-16T02:15:05;5.70;;;2.90;;
809;SDS011;387;48.772;9.186;2022-10-16T02:17:32;5.20;;;2.63;;
809;SDS011;387;48.772;9.186;2022-10-16T02:19:57;5.70;;;2.67;;
809;SDS011;387;48.772;9.186;2022-10-16T02:22:27;3.70;;;2.23;;
809;SDS011;387;48.772;9.186;2022-10-16T02:28:00;4.00;;;2.50;;
809;SDS011;387;48.772;9.186;2022-10-16T02:30:57;4.33;;;2.50;;
809;SDS011;387;48.772;9.186;2022-10-16T02:33:28;3.70;;;2.73;;
809;SDS011;387;48.772;9.186;2022-10-16T02:35:55;3.93;;;2.63;;
809;SDS011;387;48.772;9.186;2022-10-16T02:38:22;4.50;;;2.50;;
809;SDS011;387;48.772;9.186;2022-10-16T02:40:49;5.30;;;2.60;;
809;SDS011;387;48.772;9.186;2022-10-16T02:43:15;3.10;;;2.33;;
809;SDS011;387;48.772;9.186;2022-10-16T02:45:41;4.80;;;2.73;;
809;SDS011;387;48.772;9.186;2022-10-16T02:48:07;5.73;;;2.43;;
809;SDS011;387;48.772;9.186;2022-10-16T02:50:33;4.03;;;2.07;;
809;SDS011;387;48.772;9.186;2022-10-16T02:52:58;5.67;;;2.60;;
809;SDS011;387;48.772;9.186;2022-10-16T02:55:24;3.80;;;2.50;;
809;SDS011;387;48.772;9.186;2022-10-16T02:57:49;3.67;;;1.97;;
809;SDS011;387;48.772;9.186;2022-10-16T03:00:15;6.90;;;2.67;;
809;SDS011;387;48.772;9.186;2022-10-16T03:02:42;3.67;;;2.23;;
809;SDS011;387;48.772;9.186;2022-10-16T03:05:08;1.97;;;1.70;;
809;SDS011;387;48.772;9.186;2022-10-16T03:07:34;4.50;;;2.30;;
809;SDS011;387;48.772;9.186;2022-10-16T03:10:00;5.20;;;2.40;;
809;SDS011;387;48.772;9.186;2022-10-16T03:12:26;5.27;;;2.60;;
809;SDS011;387;48.772;9.186;2022-10-16T03:14:53;3.13;;;2.40;;
809;SDS011;387;48.772;9.186;2022-10-16T03:17:18;3.83;;;2.57;;
809;SDS011;387;48.772;9.186;2022-10-16T03:19:44;2.90;;;2.00;;
809;SDS011;387;48.772;9.186;2022-10-16T03:22:10;2.13;;;2.00;;
809;SDS011;387;48.772;9.186;2022-10-16T03:24:35;4.10;;;2.63;;
809;SDS011;387;48.772;9.186;2022-10-16T03:27:01;5.40;;;2.20;;
809;SDS011;387;48.772;9.186;2022-10-16T03:29:27;5.03;;;2.40;;
809;SDS011;387;48.772;9.186;2022-10-16T03:31:54;3.67;;;2.10;;
809;SDS011;387;48.772;9.186;2022-10-16T03:34:20;3.10;;;2.00;;
809;SDS011;387;48.772;9.186;2022-10-16T03:36:45;3.43;;;2.07;;
809;SDS011;387;48.772;9.186;2022-10-16T03:39:11;3.87;;;2.57;;
809;SDS011;387;48.772;9.186;2022-10-16T03:41:37;4.37;;;1.93;;
809;SDS011;387;48.772;9.186;2022-10-16T03:44:02;5.13;;;2.20;;
809;SDS011;387;48.772;9.186;2022-10-16T03:46:28;7.43;;;2.53;;
809;SDS011;387;48.772;9.186;2022-10-16T03:48:54;4.37;;;2.37;;
809;SDS011;387;48.772;9.186;2022-10-16T03:51:20;5.00;;;2.30;;
809;SDS011;387;48.772;9.186;2022-10-16T03:53:45;5.60;;;2.40;;
809;SDS011;387;48.772;9.186;2022-10-16T03:56:11;5.90;;;2.50;;
809;SDS011;387;48.772;9.186;2022-10-16T03:58:36;5.57;;;2.47;;
809;SDS011;387;48.772;9.186;2022-10-16T04:01:02;3.60;;;2.20;;
809;SDS011;387;48.772;9.186;2022-10-16T04:03:27;2.77;;;2.33;;
809;SDS011;387;48.772;9.186;2022-10-16T04:05:53;6.07;;;2.80;;
809;SDS011;387;48.772;9.186;2022-10-16T04:08:19;8.00;;;2.40;;
809;SDS011;387;48.772;9.186;2022-10-16T04:10:44;6.20;;;2.70;;
809;SDS011;387;48.772;9.186;2022-10-16T04:13:11;6.43;;;2.57;;
809;SDS011;387;48.772;9.186;2022-10-16T04:15:36;3.53;;;2.43;;
809;SDS011;387;48.772;9.186;2022-10-16T04:18:02;3.57;;;2.10;;
809;SDS011;387;48.772;9.186;2022-10-16T04:20:29;2.83;;;2.13;;
809;SDS011;387;48.772;9.186;2022-10-16T04:22:55;2.67;;;2.10;;
809;SDS011;387;48.772;9.186;2022-10-16T04:25:20;3.10;;;2.47;;
809;SDS011;387;48.772;9.186;2022-10-16T04:27:46;3.43;;;2.17;;
809;SDS011;387;48.772;9.186;2022-10-16T04:30:12;3.80;;;2.53;;
809;SDS011;387;48.772;9.186;2022-10-16T04:32:38;3.93;;;2.07;;
809;SDS011;387;48.772;9.186;2022-10-16T04:35:03;6.47;;;2.40;;
809;SDS011;387;48.772;9.186;2022-10-16T04:37:29;3.90;;;2.13;;
809;SDS011;387;48.772;9.186;2022-10-16T04:39:55;4.67;;;2.07;;
809;SDS011;387;48.772;9.186;2022-10-16T04:42:21;3.87;;;2.30;;
809;SDS011;387;48.772;9.186;2022-10-16T04:44:46;3.00;;;2.53;;
809;SDS011;387;48.772;9.186;2022-10-16T04:47:12;6.27;;;2.23;;
809;SDS011;387;48.772;9.186;2022-10-16T04:49:38;5.73;;;2.10;;
809;SDS011;387;48.772;9.186;2022-10-16T04:52:04;4.63;;;2.40;;
809;SDS011;387;48.772;9.186;2022-10-16T04:54:29;3.40;;;2.40;;
809;SDS011;387;48.772;9.186;2022-10-16T04:56:55;4.30;;;2.00;;
809;SDS011;387;48.772;9.186;2022-10-16T04:59:20;4.17;;;2.23;;
809;SDS011;387;48.772;9.186;2022-10-16T05:01:47;10.03;;;2.70;;
809;SDS011;387;48.772;9.186;2022-10-16T05:04:12;5.43;;;2.77;;
809;SDS011;387;48.772;9.186;2022-10-16T05:06:39;4.30;;;2.43;;
809;SDS011;387;48.772;9.186;2022-10-16T05:09:06;3.40;;;2.40;;
809;SDS011;387;48.772;9.186;2022-10-16T05:11:32;4.50;;;2.30;;
809;SDS011;387;48.772;9.186;2022-10-16T05:13:58;4.97;;;2.20;;
809;SDS011;387;48.772;9.186;2022-10-16T05:16:24;2.73;;;2.03;;
809;SDS011;387;48.772;9.186;2022-10-16T05:18:53;4.30;;;2.50;;
809;SDS011;387;48.772;9.186;2022-10-16T05:21:19;9.37;;;2.77;;
809;SDS011;387;48.772;9.186;2022-10-16T05:23:45;2.30;;;1.87;;
809;SDS011;387;48.772;9.186;2022-10-16T05:26:11;3.70;;;2.23;;
809;SDS011;387;48.772;9.186;2022-10-16T05:28:37;8.13;;;2.30;;
809;SDS011;387;48.772;9.186;2022-10-16T05:31:06;8.63;;;2.67;;
809;SDS011;387;48.772;9.186;2022-10-16T05:33:32;4.07;;;2.37;;
809;SDS011;387;48.772;9.186;2022-10-16T05:36:02;2.93;;;2.03;;
809;SDS011;387;48.772;9.186;2022-10-16T05:38:29;5.30;;;2.20;;
809;SDS011;387;48.772;9.186;2022-10-16T05:40:54;5.90;;;2.50;;
809;SDS011;387;48.772;9.186;2022-10-16T05:43:21;3.57;;;2.30;;
809;SDS011;387;48.772;9.186;2022-10-16T05:45:53;6.13;;;3.20;;
809;SDS011;387;48.772;9.186;2022-10-16T05:48:20;5.10;;;2.40;;
809;SDS011;387;48.772;9.186;2022-10-16T05:50:45;4.00;;;2.50;;
809;SDS011;387;48.772;9.186;2022-10-16T05:53:11;5.57;;;2.73;;
809;SDS011;387;48.772;9.186;2022-10-16T05:55:36;5.43;;;2.50;;
809;SDS011;387;48.772;9.186;2022-10-16T05:58:02;5.40;;;2.80;;
809;SDS011;387;48.772;9.186;2022-10-16T06:00:28;6.43;;;2.50;;
809;SDS011;387;48.772;9.186;2022-10-16T06:02:53;7.97;;;2.90;;
809;SDS011;387;48.772;9.186;2022-10-16T06:05:19;4.87;;;2.67;;
809;SDS011;387;48.772;9.186;2022-10-16T06:07:44;4.73;;;2.60;;
809;SDS011;387;48.772;9.186;2022-10-16T06:10:10;11.60;;;2.67;;
809;SDS011;387;48.772;9.186;2022-10-16T06:12:35;5.90;;;2.60;;
809;SDS011;387;48.772;9.186;2022-10-16T06:15:01;3.70;;;2.40;;
809;SDS011;387;48.772;9.186;2022-10-16T06:17:26;4.27;;;2.70;;
809;SDS011;387;48.772;9.186;2022-10-16T06:19:52;4.30;;;2.60;;
809;SDS011;387;48.772;9.186;2022-10-16T06:22:18;4.17;;;2.80;;
809;SDS011;387;48.772;9.186;2022-10-16T06:24:43;5.77;;;2.53;;
809;SDS011;387;48.772;9.186;2022-10-16T06:27:09;5.97;;;3.90;;
809;SDS011;387;48.772;9.186;2022-10-16T06:29:34;5.80;;;3.77;;
809;SDS011;387;48.772;9.186;2022-10-16T06:32:00;10.57;;;4.10;;
809;SDS011;387;48.772;9.186;2022-10-16T06:34:25;6.57;;;3.60;;
809;SDS011;387;48.772;9.186;2022-10-16T06:36:51;9.13;;;4.30;;
809;SDS011;387;48.772;9.186;2022-10-16T06:39:16;16.90;;;8.60;;
809;SDS011;387;48.772;9.186;2022-10-16T06:41:42;13.17;;;6.20;;
809;SDS011;387;48.772;9.186;2022-10-16T06:44:08;7.60;;;4.70;;
809;SDS011;387;48.772;9.186;2022-10-16T06:46:34;14.00;;;7.80;;
809;SDS011;387;48.772;9.186;2022-10-16T06:48:59;12.57;;;6.60;;
809;SDS011;387;48.772;9.186;2022-10-16T06:51:25;10.20;;;6.30;;
809;SDS011;387;48.772;9.186;2022-10-16T06:53:54;11.60;;;5.83;;
809;SDS011;387;48.772;9.186;2022-10-16T06:56:24;12.57;;;6.10;;
809;SDS011;387;48.772;9.186;2022-10-16T06:58:51;18.50;;;5.23;;
809;SDS011;387;48.772;9.186;2022-10-16T07:01:18;9.17;;;5.23;;
809;SDS011;387;48.772;9.186;2022-10-16T07:03:45;14.03;;;6.80;;
809;SDS011;387;48.772;9.186;2022-10-16T07:06:13;12.37;;;6.30;;
809;SDS011;387;48.772;9.186;2022-10-16T07:08:41;9.67;;;6.00;;
809;SDS011;387;48.772;9.186;2022-10-16T07:11:09;7.80;;;4.80;;
809;SDS011;387;48.772;9.186;2022-10-16T07:13:36;9.73;;;5.20;;
809;SDS011;387;48.772;9.186;2022-10-16T07:16:10;11.00;;;5.53;;
809;SDS011;387;48.772;9.186;2022-10-16T07:18:35;6.50;;;4.33;;
809;SDS011;387;48.772;9.186;2022-10-16T07:21:08;15.80;;;5.03;;
809;SDS011;387;48.772;9.186;2022-10-16T07:23:37;8.17;;;4.90;;
809;SDS011;387;48.772;9.186;2022-10-16T07:26:03;10.63;;;4.70;;
809;SDS011;387;48.772;9.186;2022-10-16T07:28:30;5.77;;;3.50;;
809;SDS011;387;48.772;9.186;2022-10-16T07:31:00;6.37;;;4.10;;
809;SDS011;387;48.772;9.186;2022-10-16T07:33:30;7.07;;;3.57;;
809;SDS011;387;48.772;9.186;2022-10-16T07:35:56;8.10;;;3.57;;
809;SDS011;387;48.772;9.186;2022-10-16T07:38:22;8.83;;;4.27;;
809;SDS011;387;48.772;9.186;2022-10-16T07:40:55;5.10;;;3.20;;
809;SDS011;387;48.772;9.186;2022-10-16T07:43:21;9.83;;;4.17;;
809;SDS011;387;48.772;9.186;2022-10-16T07:45:47;7.13;;;3.97;;
809;SDS011;387;48.772;9.186;2022-10-16T07:48:14;9.63;;;4.00;;
809;SDS011;387;48.772;9.186;2022-10-16T07:50:40;4.60;;;2.97;;
809;SDS011;387;48.772;9.186;2022-10-16T07:53:06;15.27;;;3.67;;
809;SDS011;387;48.772;9.186;2022-10-16T07:55:32;5.47;;;2.90;;
809;SDS011;387;48.772;9.186;2022-10-16T07:57:57;6.53;;;3.53;;
809;SDS011;387;48.772;9.186;2022-10-16T08:00:23;7.27;;;3.67;;
809;SDS011;387;48.772;9.186;2022-10-16T08:02:48;9.30;;;3.77;;
809;SDS011;387;48.772;9.186;2022-10-16T08:05:14;7.63;;;3.40;;
809;SDS011;387;48.772;9.186;2022-10-16T08:07:40;4.93;;;2.73;;
809;SDS011;387;48.772;9.186;2022-10-16T08:10:05;5.63;;;3.40;;
809;SDS011;387;48.772;9.186;2022-10-16T08:12:31;8.13;;;3.80;;
809;SDS011;387;48.772;9.186;2022-10-16T08:14:57;5.30;;;2.50;;
809;SDS011;387;48.772;9.186;2022-10-16T08:17:22;9.97;;;3.43;;
809;SDS011;387;48.772;9.186;2022-10-16T08:19:48;5.43;;;3.33;;
809;SDS011;387;48.772;9.186;2022-10-16T08:22:14;7.00;;;3.20;;
809;SDS011;387;48.772;9.186;2022-10-16T08:24:40;4.67;;;3.00;;
809;SDS011;387;48.772;9.186;2022-10-16T08:27:05;4.33;;;2.93;;
809;SDS011;387;48.772;9.186;2022-10-16T08:29:31;5.40;;;3.40;;
809;SDS011;387;48.772;9.186;2022-10-16T08:31:57;6.57;;;3.20;;
809;SDS011;387;48.772;9.186;2022-10-16T08:34:23;4.40;;;3.20;;
809;SDS011;387;48.772;9.186;2022-10-16T08:36:49;6.10;;;3.10;;
809;SDS011;387;48.772;9.186;2022-10-16T08:39:15;3.90;;;2.80;;
809;SDS011;387;48.772;9.186;2022-10-16T08:42:03;3.83;;;2.63;;
809;SDS011;387;48.772;9.186;2022-10-16T08:49:48;4.90;;;2.30;;
809;SDS011;387;48.772;9.186;2022-10-16T08:52:38;5.00;;;2.63;;
809;SDS011;387;48.772;9.186;2022-10-16T08:55:08;3.90;;;2.87;;
809;SDS011;387;48.772;9.186;2022-10-16T08:57:44;7.37;;;2.80;;
809;SDS011;387;48.772;9.186;2022-10-16T09:00:12;3.80;;;2.93;;
809;SDS011;387;48.772;9.186;2022-10-16T09:02:58;7.67;;;2.83;;
809;SDS011;387;48.772;9.186;2022-10-16T09:06:02;4.17;;;2.30;;
809;SDS011;387;48.772;9.186;2022-10-16T09:12:03;2.70;;;2.10;;
809;SDS011;387;48.772;9.186;2022-10-16T09:23:36;2.43;;;1.87;;
809;SDS011;387;48.772;9.186;2022-10-16T09:26:03;3.50;;;1.83;;
809;SDS011;387;48.772;9.186;2022-10-16T09:28:31;6.47;;;1.90;;
809;SDS011;387;48.772;9.186;2022-10-16T09:30:56;2.93;;;2.00;;
809;SDS011;387;48.772;9.186;2022-10-16T09:33:23;3.40;;;2.27;;
809;SDS011;387;48.772;9.186;2022-10-16T09:35:55;2.90;;;1.90;;
809;SDS011;387;48.772;9.186;2022-10-16T09:38:28;6.13;;;1.97;;
809;SDS011;387;48.772;9.186;2022-10-16T09:40:58;5.43;;;2.30;;
809;SDS011;387;48.772;9.186;2022-10-16T09:46:06;2.90;;;1.93;;
809;SDS011;387;48.772;9.186;2022-10-16T09:48:37;5.53;;;2.40;;
809;SDS011;387;48.772;9.186;2022-10-16T09:51:27;2.23;;;1.93;;
809;SDS011;387;48.772;9.186;2022-10-16T09:53:59;3.73;;;2.10;;
809;SDS011;387;48.772;9.186;2022-10-16T09:56:35;5.70;;;2.00;;
809;SDS011;387;48.772;9.186;2022-10-16T09:59:08;2.20;;;1.80;;
809;SDS011;387;48.772;9.186;2022-10-16T10:01:36;3.33;;;2.10;;
809;SDS011;387;48.772;9.186;2022-10-16T10:04:04;6.60;;;2.30;;
809;SDS011;387;48.772;9.186;2022-10-16T10:06:52;2.87;;;1.90;;
809;SDS011;387;48.772;9.186;2022-10-16T10:14:32;2.67;;;2.17;;
809;SDS011;387;48.772;9.186;2022-10-16T10:38:20;6.33;;;2.30;;
809;SDS011;387;48.772;9.186;2022-10-16T10:44:04;4.20;;;1.90;;
809;SDS011;387;48.772;9.186;2022-10-16T10:46:50;3.00;;;2.03;;
809;SDS011;387;48.772;9.186;2022-10-16T10:54:39;8.10;;;3.00;;
809;SDS011;387;48.772;9.186;2022-10-16T11:05:52;3.70;;;2.50;;
809;SDS011;387;48.772;9.186;2022-10-16T11:08:46;6.43;;;3.00;;
809;SDS011;387;48.772;9.186;2022-10-16T11:11:20;4.90;;;3.10;;
809;SDS011;387;48.772;9.186;2022-10-16T11:16:42;5.53;;;2.53;;
809;SDS011;387;48.772;9.186;2022-10-16T11:24:52;4.20;;;2.70;;
809;SDS011;387;48.772;9.186;2022-10-16T11:27:58;4.53;;;2.60;;
809;SDS011;387;48.772;9.186;2022-10-16T11:30:39;4.10;;;2.77;;
809;SDS011;387;48.772;9.186;2022-10-16T11:33:20;4.67;;;2.60;;
809;SDS011;387;48.772;9.186;2022-10-16T11:36:00;7.40;;;2.13;;
809;SDS011;387;48.772;9.186;2022-10-16T11:41:33;4.90;;;2.63;;
809;SDS011;387;48.772;9.186;2022-10-16T11:44:13;5.50;;;2.67;;
809;SDS011;387;48.772;9.186;2022-10-16T11:49:53;4.83;;;3.00;;
809;SDS011;387;48.772;9.186;2022-10-16T11:52:36;4.43;;;2.30;;
809;SDS011;387;48.772;9.186;2022-10-16T11:55:14;4.80;;;2.40;;
809;SDS011;387;48.772;9.186;2022-10-16T11:57:45;6.33;;;3.40;;
809;SDS011;387;48.772;9.186;2022-10-16T12:00:40;3.73;;;2.50;;
809;SDS011;387;48.772;9.186;2022-10-16T12:03:20;6.33;;;2.40;;
809;SDS011;387;48.772;9.186;2022-10-16T12:08:53;10.20;;;2.57;;
809;SDS011;387;48.772;9.186;2022-10-16T12:14:04;2.70;;;2.17;;
809;SDS011;387;48.772;9.186;2022-10-16T12:16:32;3.30;;;2.00;;
809;SDS011;387;48.772;9.186;2022-10-16T12:19:11;2.97;;;2.23;;
809;SDS011;387;48.772;9.186;2022-10-16T12:21:39;2.50;;;2.00;;
809;SDS011;387;48.772;9.186;2022-10-16T12:24:06;13.03;;;2.77;;
809;SDS011;387;48.772;9.186;2022-10-16T12:26:52;2.40;;;2.03;;
809;SDS011;387;48.772;9.186;2022-10-16T12:29:23;3.07;;;2.10;;
809;SDS011;387;48.772;9.186;2022-10-16T12:31:53;2.47;;;1.90;;
809;SDS011;387;48.772;9.186;2022-10-16T12:34:29;3.70;;;2.13;;
809;SDS011;387;48.772;9.186;2022-10-16T12:37:09;3.13;;;2.10;;
809;SDS011;387;48.772;9.186;2022-10-16T12:39:35;3.60;;;1.90;;
809;SDS011;387;48.772;9.186;2022-10-16T12:42:22;2.73;;;2.23;;
809;SDS011;387;48.772;9.186;2022-10-16T12:44:47;4.80;;;2.40;;
809;SDS011;387;48.772;9.186;2022-10-16T12:47:24;4.03;;;2.70;;
809;SDS011;387;48.772;9.186;2022-10-16T12:50:03;3.43;;;2.83;;
809;SDS011;387;48.772;9.186;2022-10-16T12:52:47;4.50;;;3.00;;
809;SDS011;387;48.772;9.186;2022-10-16T12:55:16;6.43;;;2.63;;
809;SDS011;387;48.772;9.186;2022-10-16T13:13:59;3.40;;;2.37;;
809;SDS011;387;48.772;9.186;2022-10-16T13:16:38;4.90;;;2.27;;
809;SDS011;387;48.772;9.186;2022-10-16T13:19:45;9.37;;;2.87;;
809;SDS011;387;48.772;9.186;2022-10-16T13:22:41;5.90;;;3.07;;
809;SDS011;387;48.772;9.186;2022-10-16T13:25:34;4.27;;;2.60;;
809;SDS011;387;48.772;9.186;2022-10-16T13:28:10;3.60;;;2.67;;
809;SDS011;387;48.772;9.186;2022-10-16T13:30:41;3.33;;;2.33;;
809;SDS011;387;48.772;9.186;2022-10-16T13:35:35;6.30;;;3.20;;
809;SDS011;387;48.772;9.186;2022-10-16T13:38:05;4.30;;;2.40;;
809;SDS011;387;48.772;9.186;2022-10-16T13:40:36;4.67;;;2.40;;
809;SDS011;387;48.772;9.186;2022-10-16T13:43:01;6.10;;;3.50;;
809;SDS011;387;48.772;9.186;2022-10-16T13:45:27;7.23;;;2.30;;
809;SDS011;387;48.772;9.186;2022-10-16T13:48:03;3.83;;;2.53;;
809;SDS011;387;48.772;9.186;2022-10-16T13:50:30;3.70;;;2.73;;
809;SDS011;387;48.772;9.186;2022-10-16T13:55:50;2.63;;;2.30;;
809;SDS011;387;48.772;9.186;2022-10-16T13:58:16;3.47;;;2.57;;
809;SDS011;387;48.772;9.186;2022-10-16T14:00:54;5.83;;;3.03;;
809;SDS011;387;48.772;9.186;2022-10-16T14:03:25;3.87;;;2.90;;
809;SDS011;387;48.772;9.186;2022-10-16T14:05:53;3.57;;;2.57;;
809;SDS011;387;48.772;9.186;2022-10-16T14:08:26;4.90;;;2.50;;
809;SDS011;387;48.772;9.186;2022-10-16T14:10:54;4.40;;;2.70;;
809;SDS011;387;48.772;9.186;2022-10-16T14:15:58;2.87;;;2.60;;
809;SDS011;387;48.772;9.186;2022-10-16T14:18:27;5.53;;;2.70;;
809;SDS011;387;48.772;9.186;2022-10-16T14:20:53;4.80;;;2.40;;
809;SDS011;387;48.772;9.186;2022-10-16T14:23:23;3.07;;;2.00;;
809;SDS011;387;48.772;9.186;2022-10-16T14:31:57;3.57;;;2.50;;
809;SDS011;387;48.772;9.186;2022-10-16T14:36:58;5.50;;;2.70;;
809;SDS011;387;48.772;9.186;2022-10-16T14:39:33;3.93;;;2.50;;
809;SDS011;387;48.772;9.186;2022-10-16T14:42:00;4.10;;;2.50;;
809;SDS011;387;48.772;9.186;2022-10-16T14:44:31;6.03;;;3.00;;
809;SDS011;387;48.772;9.186;2022-10-16T14:46:58;5.10;;;2.70;;
809;SDS011;387;48.772;9.186;2022-10-16T14:49:33;4.73;;;2.63;;
809;SDS011;387;48.772;9.186;2022-10-16T14:51:58;4.83;;;2.87;;
809;SDS011;387;48.772;9.186;2022-10-16T14:54:24;5.23;;;3.63;;
809;SDS011;387;48.772;9.186;2022-10-16T14:56:53;4.40;;;2.63;;
809;SDS011;387;48.772;9.186;2022-10-16T14:59:39;4.43;;;3.20;;
809;SDS011;387;48.772;9.186;2022-10-16T15:02:20;3.63;;;2.33;;
809;SDS011;387;48.772;9.186;2022-10-16T15:04:48;3.43;;;2.50;;
809;SDS011;387;48.772;9.186;2022-10-16T15:07:14;12.07;;;3.10;;
809;SDS011;387;48.772;9.186;2022-10-16T15:09:39;4.67;;;3.00;;
809;SDS011;387;48.772;9.186;2022-10-16T15:12:05;4.70;;;2.73;;
809;SDS011;387;48.772;9.186;2022-10-16T15:14:31;6.47;;;2.60;;
809;SDS011;387;48.772;9.186;2022-10-16T15:16:56;5.07;;;3.67;;
809;SDS011;387;48.772;9.186;2022-10-16T15:19:22;4.17;;;2.87;;
809;SDS011;387;48.772;9.186;2022-10-16T15:21:48;6.80;;;2.97;;
809;SDS011;387;48.772;9.186;2022-10-16T15:24:14;8.47;;;3.10;;
809;SDS011;387;48.772;9.186;2022-10-16T15:26:40;4.00;;;2.73;;
809;SDS011;387;48.772;9.186;2022-10-16T15:29:05;4.97;;;3.37;;
809;SDS011;387;48.772;9.186;2022-10-16T15:31:31;6.30;;;3.20;;
809;SDS011;387;48.772;9.186;2022-10-16T15:33:57;8.40;;;3.10;;
809;SDS011;387;48.772;9.186;2022-10-16T15:36:28;11.37;;;2.90;;
809;SDS011;387;48.772;9.186;2022-10-16T15:39:01;4.10;;;2.70;;
809;SDS011;387;48.772;9.186;2022-10-16T15:41:27;5.53;;;2.60;;
809;SDS011;387;48.772;9.186;2022-10-16T15:43:53;7.40;;;3.53;;
809;SDS011;387;48.772;9.186;2022-10-16T15:46:20;6.80;;;3.23;;
809;SDS011;387;48.772;9.186;2022-10-16T15:48:47;5.80;;;3.27;;
809;SDS011;387;48.772;9.186;2022-10-16T15:51:14;5.50;;;2.60;;
809;SDS011;387;48.772;9.186;2022-10-16T15:53:41;5.93;;;2.80;;
809;SDS011;387;48.772;9.186;2022-10-16T15:56:07;3.17;;;2.50;;
809;SDS011;387;48.772;9.186;2022-10-16T15:58:34;3.80;;;2.70;;
809;SDS011;387;48.772;9.186;2022-10-16T16:01:00;5.37;;;3.20;;
809;SDS011;387;48.772;9.186;2022-10-16T16:03:28;6.13;;;2.83;;
809;SDS011;387;48.772;9.186;2022-10-16T16:05:54;4.33;;;2.53;;
809;SDS011;387;48.772;9.186;2022-10-16T16:08:20;8.53;;;3.03;;
809;SDS011;387;48.772;9.186;2022-10-16T16:10:56;4.80;;;2.80;;
809;SDS011;387;48.772;9.186;2022-10-16T16:13:25;3.70;;;2.70;;
809;SDS011;387;48.772;9.186;2022-10-16T16:15:50;23.27;;;3.40;;
809;SDS011;387;48.772;9.186;2022-10-16T16:18:16;5.80;;;2.70;;
809;SDS011;387;48.772;9.186;2022-10-16T16:20:41;5.40;;;3.83;;
809;SDS011;387;48.772;9.186;2022-10-16T16:23:07;3.80;;;3.00;;
809;SDS011;387;48.772;9.186;2022-10-16T16:25:32;7.63;;;2.80;;
809;SDS011;387;48.772;9.186;2022-10-16T16:27:58;5.77;;;2.73;;
809;SDS011;387;48.772;9.186;2022-10-16T16:30:23;9.80;;;3.20;;
809;SDS011;387;48.772;9.186;2022-10-16T16:32:49;10.63;;;3.00;;
809;SDS011;387;48.772;9.186;2022-10-16T16:35:14;5.57;;;2.93;;
809;SDS011;387;48.772;9.186;2022-10-16T16:37:40;8.40;;;3.17;;
809;SDS011;387;48.772;9.186;2022-10-16T16:40:06;6.93;;;2.70;;
809;SDS011;387;48.772;9.186;2022-10-16T16:42:31;3.87;;;2.70;;
809;SDS011;387;48.772;9.186;2022-10-16T16:44:57;5.10;;;2.50;;
809;SDS011;387;48.772;9.186;2022-10-16T16:47:22;5.90;;;2.67;;
809;SDS011;387;48.772;9.186;2022-10-16T16:49:48;9.03;;;3.10;;
809;SDS011;387;48.772;9.186;2022-10-16T16:52:14;3.67;;;2.53;;
809;SDS011;387;48.772;9.186;2022-10-16T16:54:39;6.80;;;2.60;;
809;SDS011;387;48.772;9.186;2022-10-16T16:57:05;5.27;;;2.77;;
809;SDS011;387;48.772;9.186;2022-10-16T16:59:31;12.20;;;3.63;;
809;SDS011;387;48.772;9.186;2022-10-16T17:01:59;7.23;;;3.17;;
809;SDS011;387;48.772;9.186;2022-10-16T17:04:25;6.13;;;4.03;;
809;SDS011;387;48.772;9.186;2022-10-16T17:06:52;8.37;;;3.60;;
809;SDS011;387;48.772;9.186;2022-10-16T17:09:21;8.83;;;3.30;;
809;SDS011;387;48.772;9.186;2022-10-16T17:11:47;7.83;;;2.90;;
809;SDS011;387;48.772;9.186;2022-10-16T17:14:13;6.00;;;3.27;;
809;SDS011;387;48.772;9.186;2022-10-16T17:16:39;7.53;;;4.23;;
809;SDS011;387;48.772;9.186;2022-10-16T17:19:10;7.80;;;3.60;;
809;SDS011;387;48.772;9.186;2022-10-16T17:21:37;4.60;;;2.93;;
809;SDS011;387;48.772;9.186;2022-10-16T17:24:03;6.30;;;3.43;;
809;SDS011;387;48.772;9.186;2022-10-16T17:26:29;8.10;;;3.23;;
809;SDS011;387;48.772;9.186;2022-10-16T17:28:56;5.70;;;3.60;;
809;SDS011;387;48.772;9.186;2022-10-16T17:31:25;7.67;;;4.20;;
809;SDS011;387;48.772;9.186;2022-10-16T17:33:53;10.17;;;4.90;;
809;SDS011;387;48.772;9.186;2022-10-16T17:36:19;10.33;;;4.30;;
809;SDS011;387;48.772;9.186;2022-10-16T17:38:46;8.60;;;3.80;;
809;SDS011;387;48.772;9.186;2022-10-16T17:41:16;6.97;;;4.60;;
809;SDS011;387;48.772;9.186;2022-10-16T17:43:43;7.47;;;3.80;;
809;SDS011;387;48.772;9.186;2022-10-16T17:46:10;12.90;;;4.50;;
809;SDS011;387;48.772;9.186;2022-10-16T17:48:41;10.50;;;4.83;;
809;SDS011;387;48.772;9.186;2022-10-16T17:51:10;9.20;;;5.33;;
809;SDS011;387;48.772;9.186;2022-10-16T17:53:37;12.40;;;5.70;;
809;SDS011;387;48.772;9.186;2022-10-16T17:56:07;8.63;;;4.83;;
809;SDS011;387;48.772;9.186;2022-10-16T17:58:35;9.27;;;4.87;;
809;SDS011;387;48.772;9.186;2022-10-16T18:01:01;8.00;;;4.40;;
809;SDS011;387;48.772;9.186;2022-10-16T18:03:35;8.90;;;4.37;;